Hlavní strana
METAR-TAF:

METAR-TAF

Letiště :

Ankara Esenboğa, Turecko

Letiště Ankara-Esenboğa

zeměpisná šířka: 40-07N, zeměpisná délka: 032-59E, výška: 953 m

Aktuální stav počasí

Zpráva byla vytvořena před 15 minutami, v 21:50 UTC
Západojihozápadní vítr 4 kt
Teplota 11°C
Vlhkost vzduchu 58%
Tlak 1017 hPa
Viditelnost 10 km a více
Žádná oblačnost pod 1500 m, nevyskytují se cumulonimby.

METAR: LTAC 252150Z 24004KT CAVOK 11/03 Q1017 NOSIG RMK RWY21L 35005KT RWY03L 36003KT RWY21R 36005KT

Čas: 01:05 (22:05 UTC)

Předpověď počasí

Zpráva byla vytvořena před 5 hodinami a 25 minutami, v 16:40 UTC
Předpověď platná od 25 v 18 UTC do 26 v 18 UTC
vítr z různých směrů 2 kt
Viditelnost 10 km a více
Žádná oblačnost pod 1500 m, nevyskytují se cumulonimby.
Změna
od 26 v 06 UTC do 26 v 09 UTC
Skoro jasno ve výšce 4000 ft

TAF: LTAC 251640Z 2518/2618 VRB02KT CAVOK BECMG 2606/2609 FEW040

Stav a předpovědi počasí z více než 4 000 letišť (zprávy METAR a TAF).

Červené a žluté tečky na mapě představují dostupné meteorologické stanice.

Když kurzor umístíte na tečku, zobrazí se název stanice.

Pak kliknutím zobrazíte stav a předpověď počasí.

Chcete-li změnit mapu, kliknutím na zelené tlačítko se znaménkem +mapu přiblížíte, kliknutím na zelené tlačítko se znaménkem – mapu oddálíte a kliknutím na zelené šipky přejdete na sousední mapy.


METAR-TAF: